Time;durP1;ratioP1;P1;durP2;ratioP2;P2;SDS_P1;SDS_P2;PMS_P1;PMS_P2;Temp;Humidity;BMP_temperature;BMP_pressure;BME280_temperature;BME280_humidity;BME280_pressure;Samples;Min_cycle;Max_cycle;Signal;HPM_P1;HPM_P2
2023/08/18 00:00:28;;;;;;;;;;;22.00;99.90;;;;;;2059459;28;19917;-71
2023/08/18 00:01:29;;;;;;;;;;;21.90;99.90;;;;;;2059261;28;20013;-73
2023/08/18 00:02:30;;;;;;;;;;;21.90;99.90;;;;;;2059144;28;20448;-73
2023/08/18 00:03:30;;;;;;;;;;;21.90;99.90;;;;;;2059380;28;20419;-72
2023/08/18 00:04:31;;;;;;;;;;;21.90;99.90;;;;;;2061015;28;20004;-74
2023/08/18 00:05:31;;;;;;;;;;;21.90;99.90;;;;;;2059335;28;19918;-72
2023/08/18 00:06:32;;;;;;;;;;;21.90;99.90;;;;;;2059144;28;19914;-72
2023/08/18 00:07:32;;;;;;;;;;;21.90;99.90;;;;;;2055275;28;20089;-72
2023/08/18 00:08:33;;;;;;;;;;;21.90;99.90;;;;;;2061289;28;20404;-73
2023/08/18 00:09:33;;;;;;;;;;;21.90;99.90;;;;;;2058854;28;19929;-73
2023/08/18 00:10:34;;;;;;;;;;;21.80;99.90;;;;;;2056097;28;19913;-74
2023/08/18 00:11:34;;;;;;;;;;;21.80;99.90;;;;;;2059291;28;19997;-72
2023/08/18 00:12:35;;;;;;;;;;;21.80;99.90;;;;;;2061213;28;19922;-72
2023/08/18 00:13:35;;;;;;;;;;;21.80;99.90;;;;;;2054179;28;19936;-74
2023/08/18 00:14:36;;;;;;;;;;;21.80;99.90;;;;;;2059005;28;19913;-73
2023/08/18 00:15:36;;;;;;;;;;;21.80;99.90;;;;;;2059022;28;19918;-73
2023/08/18 00:16:37;;;;;;;;;;;21.80;99.90;;;;;;2061190;28;20048;-73
2023/08/18 00:17:38;;;;;;;;;;;21.80;99.90;;;;;;2059022;28;19946;-72
2023/08/18 00:18:38;;;;;;;;;;;21.80;99.90;;;;;;2058817;28;19924;-73
2023/08/18 00:19:38;;;;;;;;;;;21.80;99.90;;;;;;2058825;28;19914;-72
2023/08/18 00:20:39;;;;;;;;;;;21.70;99.90;;;;;;2057085;28;19936;-72
2023/08/18 00:21:40;;;;;;;;;;;21.70;99.90;;;;;;2059147;28;20003;-72
2023/08/18 00:22:40;;;;;;;;;;;21.70;99.90;;;;;;2059023;28;19913;-73
2023/08/18 00:23:41;;;;;;;;;;;21.70;99.90;;;;;;2058567;28;20127;-72
2023/08/18 00:24:42;;;;;;;;;;;21.70;99.90;;;;;;2060188;28;19918;-73
2023/08/18 00:25:42;;;;;;;;;;;21.70;99.90;;;;;;2056461;28;19961;-73
2023/08/18 00:26:45;;;;;;;;;;;21.70;99.90;;;;;;2059115;28;19917;-73
2023/08/18 00:27:45;;;;;;;;;;;21.60;99.90;;;;;;2058307;28;19918;-73
2023/08/18 00:28:46;;;;;;;;;;;21.60;99.90;;;;;;2060380;28;19914;-73
2023/08/18 00:29:46;;;;;;;;;;;21.60;99.90;;;;;;2056481;28;19949;-73
2023/08/18 00:30:47;;;;;;;;;;;21.60;99.90;;;;;;2058129;28;20447;-74
2023/08/18 00:31:47;;;;;;;;;;;21.60;99.90;;;;;;2058606;28;20009;-73
2023/08/18 00:32:48;;;;;;;;;;;21.50;99.90;;;;;;2056920;28;19930;-72
2023/08/18 00:33:48;;;;;;;;;;;21.50;99.90;;;;;;2052065;28;19918;-74
2023/08/18 00:34:50;;;;;;;;;;;21.50;99.90;;;;;;2055301;28;19984;-73
2023/08/18 00:35:50;;;;;;;;;;;21.50;99.90;;;;;;2054886;28;20389;-73
2023/08/18 00:36:51;;;;;;;;;;;21.50;99.90;;;;;;2055069;28;19914;-73
2023/08/18 00:37:52;;;;;;;;;;;21.50;99.90;;;;;;2057208;28;20436;-73
2023/08/18 00:38:52;;;;;;;;;;;21.50;99.90;;;;;;2058685;28;20355;-76
2023/08/18 00:39:52;;;;;;;;;;;21.40;99.90;;;;;;2058827;28;19924;-74
2023/08/18 00:40:55;;;;;;;;;;;21.40;99.90;;;;;;2058112;28;19920;-71
2023/08/18 00:41:56;;;;;;;;;;;21.40;99.90;;;;;;2061010;28;19944;-73
2023/08/18 00:42:57;;;;;;;;;;;21.40;99.90;;;;;;2058204;28;20389;-73
2023/08/18 00:43:58;;;;;;;;;;;21.40;99.90;;;;;;2051798;28;20198;-72
2023/08/18 00:44:59;;;;;;;;;;;21.40;99.90;;;;;;2057953;28;20202;-72
2023/08/18 00:46:01;;;;;;;;;;;21.40;99.90;;;;;;2056129;28;19914;-72
2023/08/18 00:47:03;;;;;;;;;;;21.30;99.90;;;;;;2050164;28;20313;-73
2023/08/18 00:48:03;;;;;;;;;;;21.30;99.90;;;;;;2050233;28;19922;-73
2023/08/18 00:49:04;;;;;;;;;;;21.30;99.90;;;;;;2050263;28;20382;-73
2023/08/18 00:50:05;;;;;;;;;;;21.30;99.90;;;;;;2058347;28;19965;-72
2023/08/18 00:51:06;;;;;;;;;;;21.30;99.90;;;;;;2064719;28;20021;-73
2023/08/18 00:52:07;;;;;;;;;;;21.30;99.90;;;;;;2050375;28;20097;-72
2023/08/18 00:53:08;;;;;;;;;;;21.20;99.90;;;;;;2040340;28;19926;-73
2023/08/18 00:54:09;;;;;;;;;;;21.20;99.90;;;;;;2057535;28;19921;-72
2023/08/18 00:55:10;;;;;;;;;;;21.20;99.90;;;;;;2052319;28;19914;-75
2023/08/18 00:56:11;;;;;;;;;;;21.20;99.90;;;;;;2050438;28;19925;-73
2023/08/18 00:57:11;;;;;;;;;;;21.20;99.90;;;;;;2057121;28;19910;-74
2023/08/18 00:58:12;;;;;;;;;;;21.20;99.90;;;;;;2058309;28;20373;-73
2023/08/18 00:59:12;;;;;;;;;;;21.20;99.90;;;;;;2058291;28;20321;-73
2023/08/18 01:00:13;;;;;;;;;;;21.20;99.90;;;;;;2058366;28;19922;-73
2023/08/18 01:01:14;;;;;;;;;;;21.20;99.90;;;;;;2060068;28;19914;-73
2023/08/18 01:02:16;;;;;;;;;;;21.20;99.90;;;;;;2058065;28;19949;-73
2023/08/18 01:03:18;;;;;;;;;;;21.20;99.90;;;;;;2058037;28;19917;-73
2023/08/18 01:04:18;;;;;;;;;;;21.20;99.90;;;;;;2058139;28;19928;-72
2023/08/18 01:05:19;;;;;;;;;;;21.20;99.90;;;;;;2060835;28;20390;-73
2023/08/18 01:06:19;;;;;;;;;;;21.20;99.90;;;;;;2054202;28;20432;-73
2023/08/18 01:07:20;;;;;;;;;;;21.20;99.90;;;;;;2057527;28;19918;-73
2023/08/18 01:08:20;;;;;;;;;;;21.20;99.90;;;;;;2058045;28;19961;-73
2023/08/18 01:09:21;;;;;;;;;;;21.20;99.90;;;;;;2058023;28;19949;-74
2023/08/18 01:10:22;;;;;;;;;;;21.20;99.90;;;;;;2051834;28;19917;-74
2023/08/18 01:11:29;;;;;;;;;;;21.20;99.90;;;;;;2058881;28;20377;-72
2023/08/18 01:12:58;;;;;;;;;;;21.20;99.90;;;;;;2058566;28;20016;-73
2023/08/18 01:14:08;;;;;;;;;;;21.20;99.90;;;;;;2058436;28;20017;-73
2023/08/18 01:15:19;;;;;;;;;;;21.20;99.90;;;;;;2057984;28;20039;-71
2023/08/18 01:16:25;;;;;;;;;;;21.10;99.90;;;;;;2057908;28;20348;-72
2023/08/18 01:17:30;;;;;;;;;;;21.20;99.90;;;;;;2057537;28;20367;-73
2023/08/18 01:18:32;;;;;;;;;;;21.10;99.90;;;;;;2055867;28;19913;-72
2023/08/18 01:19:35;;;;;;;;;;;21.10;99.90;;;;;;2057944;28;20396;-72
2023/08/18 01:20:36;;;;;;;;;;;21.10;99.90;;;;;;2059574;28;20369;-73
2023/08/18 01:21:40;;;;;;;;;;;21.10;99.90;;;;;;2057826;28;19970;-73
2023/08/18 01:22:41;;;;;;;;;;;21.10;99.90;;;;;;2050394;28;19964;-73
2023/08/18 01:23:42;;;;;;;;;;;21.10;99.90;;;;;;2058152;28;19914;-74
2023/08/18 01:24:42;;;;;;;;;;;21.10;99.90;;;;;;2060669;28;19917;-73
2023/08/18 01:25:43;;;;;;;;;;;21.00;99.90;;;;;;2057910;28;19997;-73
2023/08/18 01:26:43;;;;;;;;;;;21.10;99.90;;;;;;2049995;28;19918;-74
2023/08/18 01:27:44;;;;;;;;;;;21.10;99.90;;;;;;2058214;28;19914;-72
2023/08/18 01:28:45;;;;;;;;;;;21.00;99.90;;;;;;2057125;28;20464;-73
2023/08/18 01:29:46;;;;;;;;;;;21.00;99.90;;;;;;2056015;28;20000;-73
2023/08/18 01:30:48;;;;;;;;;;;21.00;99.90;;;;;;2053062;28;19913;-73
2023/08/18 01:31:51;;;;;;;;;;;21.00;99.90;;;;;;2048889;28;19966;-72
2023/08/18 01:33:15;;;;;;;;;;;21.00;99.90;;;;;;2050311;28;20433;-73
2023/08/18 01:34:17;;;;;;;;;;;21.00;99.90;;;;;;2039763;28;19922;-71
2023/08/18 01:35:23;;;;;;;;;;;20.90;99.90;;;;;;2055732;28;20187;-73
2023/08/18 01:36:26;;;;;;;;;;;21.00;99.90;;;;;;2057369;28;20332;-73
2023/08/18 01:37:29;;;;;;;;;;;21.00;99.90;;;;;;2059990;28;20008;-73
2023/08/18 01:38:31;;;;;;;;;;;20.90;99.90;;;;;;2052954;28;19921;-72
2023/08/18 01:39:33;;;;;;;;;;;20.90;99.90;;;;;;2058548;28;20353;-73
2023/08/18 01:40:35;;;;;;;;;;;20.90;99.90;;;;;;2060443;28;19922;-73
2023/08/18 01:41:36;;;;;;;;;;;21.00;99.90;;;;;;2060297;28;19914;-72
2023/08/18 01:42:37;;;;;;;;;;;20.90;99.90;;;;;;2061223;28;20013;-72
2023/08/18 01:43:38;;;;;;;;;;;20.90;99.90;;;;;;2062549;28;20043;-73
2023/08/18 01:44:38;;;;;;;;;;;21.00;99.90;;;;;;2060953;28;19924;-72
2023/08/18 01:45:39;;;;;;;;;;;20.90;99.90;;;;;;2060916;28;19917;-73
2023/08/18 01:46:39;;;;;;;;;;;20.90;99.90;;;;;;2068762;28;19924;-72
2023/08/18 01:47:40;;;;;;;;;;;20.90;99.90;;;;;;2067258;28;19917;-73
2023/08/18 01:48:40;;;;;;;;;;;20.90;99.90;;;;;;2056716;28;19910;-73
2023/08/18 01:49:41;;;;;;;;;;;20.90;99.90;;;;;;2057521;28;20397;-73
2023/08/18 01:50:41;;;;;;;;;;;20.90;99.90;;;;;;2062479;28;20460;-73
2023/08/18 01:51:42;;;;;;;;;;;20.90;99.90;;;;;;2056163;28;19957;-73
2023/08/18 01:52:42;;;;;;;;;;;20.90;99.90;;;;;;2055879;28;20001;-73
2023/08/18 01:53:43;;;;;;;;;;;20.90;99.90;;;;;;2060948;28;20008;-73
2023/08/18 01:54:43;;;;;;;;;;;20.80;99.90;;;;;;2059268;28;19953;-73
2023/08/18 01:55:44;;;;;;;;;;;20.80;99.90;;;;;;2060436;28;19917;-72
2023/08/18 01:56:44;;;;;;;;;;;20.90;99.90;;;;;;2060636;28;20117;-72
2023/08/18 01:57:45;;;;;;;;;;;20.80;99.90;;;;;;2053685;28;20432;-72
2023/08/18 01:58:46;;;;;;;;;;;20.80;99.90;;;;;;2062447;28;19930;-73
2023/08/18 01:59:46;;;;;;;;;;;20.80;99.90;;;;;;2053008;28;20177;-73
2023/08/18 02:00:47;;;;;;;;;;;20.80;99.90;;;;;;2053211;28;19926;-72
2023/08/18 02:01:47;;;;;;;;;;;20.80;99.90;;;;;;2063010;28;19914;-73
2023/08/18 02:02:48;;;;;;;;;;;20.70;99.90;;;;;;2055545;28;19918;-72
2023/08/18 02:03:48;;;;;;;;;;;20.70;99.90;;;;;;2048074;28;20425;-72
2023/08/18 02:04:49;;;;;;;;;;;20.70;99.90;;;;;;2060697;28;19924;-72
2023/08/18 02:05:56;;;;;;;;;;;20.70;99.90;;;;;;2060328;28;19993;-72
2023/08/18 02:06:57;;;;;;;;;;;20.70;99.90;;;;;;2059135;28;19922;-72
2023/08/18 02:07:57;;;;;;;;;;;20.70;99.90;;;;;;2061161;28;19938;-71
2023/08/18 02:08:58;;;;;;;;;;;20.70;99.90;;;;;;2062747;28;19924;-71
2023/08/18 02:09:59;;;;;;;;;;;20.60;99.90;;;;;;2058442;28;19918;-68
2023/08/18 02:11:03;;;;;;;;;;;20.60;99.90;;;;;;2060511;28;19918;-76
2023/08/18 02:12:04;;;;;;;;;;;20.60;99.90;;;;;;2060644;28;19925;-78
2023/08/18 02:13:05;;;;;;;;;;;20.60;99.90;;;;;;2062169;28;20413;-75
2023/08/18 02:14:06;;;;;;;;;;;20.60;99.90;;;;;;2059534;28;19985;-75
2023/08/18 02:15:07;;;;;;;;;;;20.60;99.90;;;;;;2052649;28;19939;-77
2023/08/18 02:16:07;;;;;;;;;;;20.60;99.90;;;;;;2060524;28;20435;-77
2023/08/18 02:17:08;;;;;;;;;;;20.50;99.90;;;;;;2061025;28;19917;-75
2023/08/18 02:18:08;;;;;;;;;;;20.50;99.90;;;;;;2060662;28;19917;-75
2023/08/18 02:19:09;;;;;;;;;;;20.50;99.90;;;;;;2059429;28;19940;-77
2023/08/18 02:20:09;;;;;;;;;;;20.50;99.90;;;;;;2061448;28;20489;-77
2023/08/18 02:21:10;;;;;;;;;;;20.50;99.90;;;;;;2059507;28;20301;-76
2023/08/18 02:22:11;;;;;;;;;;;20.50;99.90;;;;;;2055856;28;19965;-77
2023/08/18 02:23:11;;;;;;;;;;;20.50;99.90;;;;;;2058292;28;19925;-77
2023/08/18 02:24:12;;;;;;;;;;;20.50;99.90;;;;;;2059994;28;20405;-77
2023/08/18 02:25:12;;;;;;;;;;;20.50;99.90;;;;;;2055743;28;19918;-77
2023/08/18 02:26:13;;;;;;;;;;;20.50;99.90;;;;;;2056290;28;19965;-78
2023/08/18 02:27:14;;;;;;;;;;;20.50;99.90;;;;;;2063100;28;19925;-77
2023/08/18 02:28:15;;;;;;;;;;;20.50;99.90;;;;;;2056937;28;20448;-77
2023/08/18 02:29:15;;;;;;;;;;;20.50;99.90;;;;;;2061499;28;19921;-77
2023/08/18 02:30:17;;;;;;;;;;;20.50;99.90;;;;;;2062946;28;19917;-77
2023/08/18 02:31:17;;;;;;;;;;;20.50;99.90;;;;;;2058353;28;20012;-77
2023/08/18 02:32:18;;;;;;;;;;;20.40;99.90;;;;;;2060596;28;19926;-77
2023/08/18 02:33:19;;;;;;;;;;;20.40;99.90;;;;;;2060654;28;19918;-76
2023/08/18 02:34:19;;;;;;;;;;;20.40;99.90;;;;;;2060140;28;19914;-76
2023/08/18 02:35:20;;;;;;;;;;;20.40;99.90;;;;;;2070527;28;19925;-77
2023/08/18 02:36:20;;;;;;;;;;;20.40;99.90;;;;;;2056485;28;19922;-77
2023/08/18 02:37:21;;;;;;;;;;;20.40;99.90;;;;;;2061352;28;20297;-77
2023/08/18 02:38:22;;;;;;;;;;;20.40;99.90;;;;;;2060531;28;19984;-76
2023/08/18 02:39:22;;;;;;;;;;;20.40;99.90;;;;;;2058263;28;19922;-77
2023/08/18 02:40:23;;;;;;;;;;;20.40;99.90;;;;;;2051731;28;20424;-76
2023/08/18 02:41:24;;;;;;;;;;;20.40;99.90;;;;;;2060614;28;19924;-76
2023/08/18 02:42:24;;;;;;;;;;;20.40;99.90;;;;;;2060955;28;19925;-76
2023/08/18 02:43:25;;;;;;;;;;;20.40;99.90;;;;;;2061029;28;19936;-76
2023/08/18 02:44:25;;;;;;;;;;;20.40;99.90;;;;;;2063248;28;20455;-76
2023/08/18 02:45:26;;;;;;;;;;;20.40;99.90;;;;;;2060470;28;19918;-77
2023/08/18 02:46:26;;;;;;;;;;;20.40;99.90;;;;;;2053605;28;20298;-76
2023/08/18 02:47:27;;;;;;;;;;;20.40;99.90;;;;;;2061889;28;19917;-77
2023/08/18 02:48:28;;;;;;;;;;;20.40;99.90;;;;;;2056707;28;20242;-77
2023/08/18 02:49:29;;;;;;;;;;;20.40;99.90;;;;;;2049253;28;19922;-77
2023/08/18 02:50:29;;;;;;;;;;;20.40;99.90;;;;;;2049931;28;20061;-77
2023/08/18 02:51:30;;;;;;;;;;;20.40;99.90;;;;;;2049469;28;20621;-77
2023/08/18 02:52:30;;;;;;;;;;;20.40;99.90;;;;;;2061164;28;20498;-77
2023/08/18 02:53:31;;;;;;;;;;;20.40;99.90;;;;;;2055071;28;19972;-77
2023/08/18 02:54:32;;;;;;;;;;;20.40;99.90;;;;;;2059693;28;19917;-77
2023/08/18 02:55:34;;;;;;;;;;;20.40;99.90;;;;;;2059711;28;19924;-76
2023/08/18 02:56:34;;;;;;;;;;;20.40;99.90;;;;;;2059968;28;19924;-74
2023/08/18 02:57:35;;;;;;;;;;;20.40;99.90;;;;;;2060978;28;19937;-76
2023/08/18 02:58:36;;;;;;;;;;;20.40;99.90;;;;;;2059093;28;19921;-75
2023/08/18 02:59:38;;;;;;;;;;;20.40;99.90;;;;;;2059125;28;20047;-76
2023/08/18 03:00:38;;;;;;;;;;;20.40;99.90;;;;;;2059815;28;20013;-74
2023/08/18 03:01:39;;;;;;;;;;;20.40;99.90;;;;;;2057354;28;20044;-75
2023/08/18 03:02:39;;;;;;;;;;;20.40;99.90;;;;;;2059828;28;19956;-77
2023/08/18 03:03:40;;;;;;;;;;;20.40;99.90;;;;;;2059842;28;20377;-75
2023/08/18 03:04:40;;;;;;;;;;;20.30;99.90;;;;;;2060734;28;19940;-76
2023/08/18 03:05:41;;;;;;;;;;;20.40;99.90;;;;;;2059194;28;20393;-75
2023/08/18 03:06:41;;;;;;;;;;;20.30;99.90;;;;;;2059517;28;20041;-76
2023/08/18 03:07:42;;;;;;;;;;;20.30;99.90;;;;;;2059828;28;19967;-76
2023/08/18 03:08:42;;;;;;;;;;;20.30;99.90;;;;;;2059588;28;19914;-76
2023/08/18 03:09:43;;;;;;;;;;;20.40;99.90;;;;;;2059116;28;19922;-76
2023/08/18 03:10:44;;;;;;;;;;;20.40;99.90;;;;;;2053038;28;19964;-73
2023/08/18 03:11:44;;;;;;;;;;;20.30;99.90;;;;;;2060877;28;19918;-75
2023/08/18 03:12:45;;;;;;;;;;;20.40;99.90;;;;;;2059542;28;19922;-76
2023/08/18 03:13:45;;;;;;;;;;;20.40;99.90;;;;;;2059843;28;20210;-76
2023/08/18 03:14:46;;;;;;;;;;;20.40;99.90;;;;;;2057298;28;20381;-75
2023/08/18 03:15:46;;;;;;;;;;;20.40;99.90;;;;;;2059318;28;19921;-76
2023/08/18 03:16:47;;;;;;;;;;;20.40;99.90;;;;;;2057817;28;19972;-75
2023/08/18 03:17:49;;;;;;;;;;;20.40;99.90;;;;;;2056996;28;20221;-76
2023/08/18 03:18:49;;;;;;;;;;;20.40;99.90;;;;;;2059070;28;19917;-75
2023/08/18 03:19:50;;;;;;;;;;;20.40;99.90;;;;;;2052722;28;19972;-76
2023/08/18 03:20:56;;;;;;;;;;;20.40;99.90;;;;;;2050781;28;20282;-75
2023/08/18 03:21:57;;;;;;;;;;;20.40;99.90;;;;;;2058964;28;20000;-74
2023/08/18 03:22:57;;;;;;;;;;;20.40;99.90;;;;;;2059655;28;20310;-75
2023/08/18 03:23:59;;;;;;;;;;;20.40;99.90;;;;;;2060938;28;20404;-74
2023/08/18 03:25:00;;;;;;;;;;;20.30;99.90;;;;;;2058963;28;20461;-75
2023/08/18 03:26:04;;;;;;;;;;;20.30;99.90;;;;;;2050739;28;19917;-76
2023/08/18 03:27:05;;;;;;;;;;;20.30;99.90;;;;;;2058048;28;19969;-77
2023/08/18 03:28:07;;;;;;;;;;;20.30;99.90;;;;;;2057835;28;20047;-75
2023/08/18 03:29:07;;;;;;;;;;;20.30;99.90;;;;;;2059002;28;20286;-75
2023/08/18 03:30:09;;;;;;;;;;;20.30;99.90;;;;;;2046187;28;19914;-76
2023/08/18 03:31:09;;;;;;;;;;;20.20;99.90;;;;;;2047597;28;20293;-76
2023/08/18 03:32:10;;;;;;;;;;;20.30;99.90;;;;;;2054076;28;19926;-76
2023/08/18 03:33:11;;;;;;;;;;;20.30;99.90;;;;;;2044585;28;20424;-75
2023/08/18 03:34:11;;;;;;;;;;;20.20;99.90;;;;;;2055094;28;20159;-77
2023/08/18 03:35:12;;;;;;;;;;;20.20;99.90;;;;;;2058599;28;20155;-76
2023/08/18 03:36:12;;;;;;;;;;;20.20;99.90;;;;;;2059307;28;19988;-76
2023/08/18 03:37:13;;;;;;;;;;;20.10;99.90;;;;;;2061691;28;20593;-76
2023/08/18 03:38:14;;;;;;;;;;;20.20;99.90;;;;;;2060540;28;20345;-76
2023/08/18 03:39:15;;;;;;;;;;;20.20;99.90;;;;;;2059674;28;19925;-76
2023/08/18 03:40:15;;;;;;;;;;;20.20;99.90;;;;;;2058582;28;19933;-77
2023/08/18 03:41:16;;;;;;;;;;;20.20;99.90;;;;;;2067089;28;20420;-75
2023/08/18 03:42:18;;;;;;;;;;;20.10;99.90;;;;;;2052954;28;19914;-76
2023/08/18 03:43:18;;;;;;;;;;;20.10;99.90;;;;;;2051065;28;19945;-76
2023/08/18 03:44:19;;;;;;;;;;;20.10;99.90;;;;;;2057473;28;20388;-76
2023/08/18 03:45:19;;;;;;;;;;;20.10;99.90;;;;;;2061188;28;20381;-75
2023/08/18 03:46:25;;;;;;;;;;;20.10;99.90;;;;;;2055712;28;20578;-77
2023/08/18 03:47:28;;;;;;;;;;;20.10;99.90;;;;;;2050879;28;19915;-76
2023/08/18 03:48:29;;;;;;;;;;;20.10;99.90;;;;;;2057452;28;19914;-76
2023/08/18 03:49:32;;;;;;;;;;;20.10;99.90;;;;;;2053112;28;21059;-75
2023/08/18 03:50:34;;;;;;;;;;;20.10;99.90;;;;;;2058605;28;19914;-76
2023/08/18 03:51:34;;;;;;;;;;;20.00;99.90;;;;;;2060753;28;20401;-76
2023/08/18 03:52:35;;;;;;;;;;;20.10;99.90;;;;;;2058953;28;20357;-76
2023/08/18 03:53:35;;;;;;;;;;;20.10;99.90;;;;;;2062240;28;20344;-76
2023/08/18 03:54:36;;;;;;;;;;;20.10;99.90;;;;;;2050690;28;19942;-75
2023/08/18 03:55:37;;;;;;;;;;;20.00;99.90;;;;;;2060741;28;19925;-77
2023/08/18 03:56:37;;;;;;;;;;;20.00;99.90;;;;;;2058870;28;20284;-77
2023/08/18 03:57:38;;;;;;;;;;;20.00;99.90;;;;;;2059571;28;20373;-76
2023/08/18 03:58:39;;;;;;;;;;;20.00;99.90;;;;;;2059405;28;19964;-77
2023/08/18 03:59:40;;;;;;;;;;;20.00;99.90;;;;;;2058537;28;19913;-76
2023/08/18 04:00:40;;;;;;;;;;;20.00;99.90;;;;;;2060539;28;19917;-76
2023/08/18 04:01:41;;;;;;;;;;;20.00;99.90;;;;;;2059410;28;19925;-75
2023/08/18 04:02:42;;;;;;;;;;;20.00;99.90;;;;;;2048903;28;19914;-77
2023/08/18 04:03:48;;;;;;;;;;;20.00;99.90;;;;;;2052664;28;20005;-76
2023/08/18 04:04:48;;;;;;;;;;;20.00;99.90;;;;;;2053938;28;20191;-77
2023/08/18 04:05:49;;;;;;;;;;;20.00;99.90;;;;;;2056572;28;19918;-76
2023/08/18 04:06:49;;;;;;;;;;;20.00;99.90;;;;;;2066803;28;19983;-76
2023/08/18 04:07:51;;;;;;;;;;;19.90;99.90;;;;;;2057950;28;19922;-76
2023/08/18 04:09:01;;;;;;;;;;;20.00;99.90;;;;;;2058254;28;19961;-74
2023/08/18 04:10:03;;;;;;;;;;;20.00;99.90;;;;;;2050826;28;19924;-76
2023/08/18 04:11:03;;;;;;;;;;;20.00;99.90;;;;;;2055892;28;19982;-77
2023/08/18 04:12:04;;;;;;;;;;;20.00;99.90;;;;;;2059789;28;20037;-77
2023/08/18 04:13:05;;;;;;;;;;;20.00;99.90;;;;;;2057871;28;20005;-77
2023/08/18 04:14:07;;;;;;;;;;;20.00;99.90;;;;;;2051293;28;19925;-77
2023/08/18 04:15:07;;;;;;;;;;;20.00;99.90;;;;;;2050362;28;19914;-77
2023/08/18 04:16:08;;;;;;;;;;;20.00;99.90;;;;;;2060230;28;20386;-77
2023/08/18 04:17:10;;;;;;;;;;;20.00;99.90;;;;;;2058580;28;19917;-76
2023/08/18 04:18:10;;;;;;;;;;;20.00;99.90;;;;;;2047578;28;20352;-76
2023/08/18 04:19:12;;;;;;;;;;;20.00;99.90;;;;;;2055002;28;19917;-77
2023/08/18 04:20:12;;;;;;;;;;;20.00;99.90;;;;;;2055549;28;20201;-75
2023/08/18 04:21:12;;;;;;;;;;;20.00;99.90;;;;;;2060839;28;19917;-75
2023/08/18 04:22:13;;;;;;;;;;;20.00;99.90;;;;;;2054180;28;19968;-75
2023/08/18 04:23:14;;;;;;;;;;;20.00;99.90;;;;;;2058402;28;19917;-75
2023/08/18 04:24:14;;;;;;;;;;;20.00;99.90;;;;;;2058138;28;20383;-76
2023/08/18 04:25:15;;;;;;;;;;;20.00;99.90;;;;;;2060516;28;19918;-76
2023/08/18 04:26:16;;;;;;;;;;;20.10;99.90;;;;;;2066604;28;20332;-76
2023/08/18 04:27:17;;;;;;;;;;;20.10;99.90;;;;;;2066500;28;19945;-76
2023/08/18 04:28:17;;;;;;;;;;;20.10;99.90;;;;;;2063287;28;19968;-75
2023/08/18 04:29:18;;;;;;;;;;;20.10;99.90;;;;;;2060509;28;19918;-75
2023/08/18 04:30:19;;;;;;;;;;;20.10;99.90;;;;;;2054077;28;19918;-75
2023/08/18 04:31:19;;;;;;;;;;;20.20;99.90;;;;;;2058445;28;20169;-75
2023/08/18 04:32:28;;;;;;;;;;;20.20;99.90;;;;;;2053489;28;19925;-74
2023/08/18 04:33:29;;;;;;;;;;;20.20;99.90;;;;;;2058169;28;20012;-74
2023/08/18 04:34:32;;;;;;;;;;;20.20;99.90;;;;;;2053724;28;19922;-76
2023/08/18 04:35:34;;;;;;;;;;;20.20;99.90;;;;;;2050323;28;19918;-73
2023/08/18 04:36:34;;;;;;;;;;;20.20;99.90;;;;;;2048689;28;19918;-73
2023/08/18 04:37:35;;;;;;;;;;;20.20;99.90;;;;;;2046935;28;19933;-73
2023/08/18 04:38:36;;;;;;;;;;;20.20;99.90;;;;;;2053399;28;20417;-73
2023/08/18 04:39:39;;;;;;;;;;;20.20;99.90;;;;;;2053425;28;19914;-72
2023/08/18 04:40:40;;;;;;;;;;;20.30;99.90;;;;;;2060315;28;20332;-73
2023/08/18 04:41:41;;;;;;;;;;;20.30;99.90;;;;;;2051431;28;19924;-73
2023/08/18 04:42:41;;;;;;;;;;;20.30;99.90;;;;;;2054369;28;19970;-74
2023/08/18 04:43:42;;;;;;;;;;;20.30;99.90;;;;;;2054063;28;20419;-73
2023/08/18 04:44:43;;;;;;;;;;;20.30;99.90;;;;;;2046888;28;20123;-74
2023/08/18 04:45:44;;;;;;;;;;;20.30;99.90;;;;;;2056428;28;20599;-75
2023/08/18 04:46:46;;;;;;;;;;;20.30;99.90;;;;;;2058123;28;19929;-75
2023/08/18 04:47:54;;;;;;;;;;;20.30;99.90;;;;;;2051223;28;19930;-75
2023/08/18 04:48:54;;;;;;;;;;;20.40;99.90;;;;;;2058169;28;20377;-76
2023/08/18 04:49:55;;;;;;;;;;;20.40;99.90;;;;;;2058176;28;19924;-75
2023/08/18 04:50:56;;;;;;;;;;;20.50;99.90;;;;;;2052236;28;20385;-75
2023/08/18 04:51:56;;;;;;;;;;;20.50;99.90;;;;;;2045297;28;19949;-75
2023/08/18 04:52:57;;;;;;;;;;;20.50;99.90;;;;;;2045233;28;20240;-74
2023/08/18 04:53:57;;;;;;;;;;;20.60;99.90;;;;;;2045682;28;20326;-74
2023/08/18 04:54:58;;;;;;;;;;;20.60;99.90;;;;;;2051002;28;19922;-74
2023/08/18 04:56:02;;;;;;;;;;;20.60;99.90;;;;;;2054774;28;19960;-73
2023/08/18 04:57:07;;;;;;;;;;;20.70;99.90;;;;;;2059992;28;19941;-73
2023/08/18 04:58:12;;;;;;;;;;;20.70;99.90;;;;;;2058038;28;19925;-73
2023/08/18 04:59:12;;;;;;;;;;;20.70;99.90;;;;;;2050574;28;20008;-74
2023/08/18 05:00:13;;;;;;;;;;;20.80;99.90;;;;;;2058067;28;19949;-74
2023/08/18 05:01:13;;;;;;;;;;;20.90;99.90;;;;;;2054701;28;19917;-74
2023/08/18 05:02:14;;;;;;;;;;;20.90;99.90;;;;;;2055516;28;20415;-73
2023/08/18 05:03:15;;;;;;;;;;;20.90;99.90;;;;;;2049985;28;19929;-73
2023/08/18 05:04:15;;;;;;;;;;;21.00;99.90;;;;;;2045761;28;19922;-73
2023/08/18 05:05:16;;;;;;;;;;;21.00;99.90;;;;;;2058094;28;20013;-74
2023/08/18 05:06:17;;;;;;;;;;;21.10;99.90;;;;;;2053535;28;19918;-73
2023/08/18 05:07:18;;;;;;;;;;;21.10;99.90;;;;;;2055973;28;19921;-73
2023/08/18 05:08:18;;;;;;;;;;;21.20;99.90;;;;;;2058595;28;19921;-73
2023/08/18 05:09:19;;;;;;;;;;;21.30;99.90;;;;;;2057655;28;20012;-73
2023/08/18 05:10:19;;;;;;;;;;;21.50;99.90;;;;;;2046491;28;20500;-72
2023/08/18 05:11:21;;;;;;;;;;;21.70;99.90;;;;;;2056358;28;19917;-73
2023/08/18 05:12:21;;;;;;;;;;;22.00;99.90;;;;;;2064945;28;19943;-73
2023/08/18 05:13:22;;;;;;;;;;;22.20;99.90;;;;;;2066240;28;20024;-73
2023/08/18 05:14:22;;;;;;;;;;;22.30;99.90;;;;;;2051383;28;19934;-73
2023/08/18 05:15:23;;;;;;;;;;;22.50;99.90;;;;;;2056797;28;19914;-72
2023/08/18 05:16:23;;;;;;;;;;;22.60;99.90;;;;;;2057655;28;19918;-72
2023/08/18 05:17:24;;;;;;;;;;;22.80;99.90;;;;;;2058582;28;19924;-74
2023/08/18 05:18:24;;;;;;;;;;;22.80;99.90;;;;;;2058196;28;19922;-73
2023/08/18 05:19:25;;;;;;;;;;;22.90;99.90;;;;;;2060031;28;19953;-74
2023/08/18 05:20:25;;;;;;;;;;;23.00;99.90;;;;;;2058710;28;19922;-74
2023/08/18 05:21:26;;;;;;;;;;;23.10;99.90;;;;;;2058673;28;19918;-74
2023/08/18 05:22:26;;;;;;;;;;;23.20;99.90;;;;;;2054429;28;20008;-75
2023/08/18 05:23:27;;;;;;;;;;;23.40;99.90;;;;;;2060640;28;19917;-74
2023/08/18 05:24:28;;;;;;;;;;;23.50;99.90;;;;;;2058658;28;19913;-75
2023/08/18 05:25:28;;;;;;;;;;;23.60;99.90;;;;;;2053928;28;19918;-74
2023/08/18 05:26:29;;;;;;;;;;;23.60;99.90;;;;;;2058463;28;20013;-74
2023/08/18 05:27:29;;;;;;;;;;;23.60;99.90;;;;;;2059771;28;19917;-74
2023/08/18 05:28:32;;;;;;;;;;;23.60;99.90;;;;;;2060071;28;19953;-74
2023/08/18 05:29:32;;;;;;;;;;;23.70;99.90;;;;;;2058582;28;20000;-74
2023/08/18 05:30:33;;;;;;;;;;;23.70;99.90;;;;;;2058665;28;19914;-75
2023/08/18 05:31:35;;;;;;;;;;;23.70;99.90;;;;;;2058762;28;20529;-75
2023/08/18 05:32:35;;;;;;;;;;;23.80;99.90;;;;;;2060319;28;19917;-75
2023/08/18 05:33:36;;;;;;;;;;;23.90;99.90;;;;;;2058789;28;20298;-75
2023/08/18 05:34:37;;;;;;;;;;;24.00;99.90;;;;;;2058717;28;20269;-75
2023/08/18 05:35:37;;;;;;;;;;;24.00;99.90;;;;;;2058647;28;19924;-73
2023/08/18 05:36:38;;;;;;;;;;;24.10;99.90;;;;;;2060767;28;19914;-77
2023/08/18 05:37:38;;;;;;;;;;;24.20;99.90;;;;;;2057906;28;20020;-74
2023/08/18 05:38:39;;;;;;;;;;;24.20;99.90;;;;;;2057988;28;19921;-74
2023/08/18 05:39:39;;;;;;;;;;;24.30;99.90;;;;;;2056408;28;20013;-74
2023/08/18 05:40:41;;;;;;;;;;;24.30;99.90;;;;;;2057786;28;19918;-76
2023/08/18 05:41:43;;;;;;;;;;;24.30;99.90;;;;;;2060318;28;19972;-75
2023/08/18 05:42:44;;;;;;;;;;;24.30;99.90;;;;;;2058533;28;19913;-74
2023/08/18 05:43:44;;;;;;;;;;;24.30;99.90;;;;;;2058590;28;19968;-74
2023/08/18 05:44:45;;;;;;;;;;;24.30;99.90;;;;;;2060659;28;20356;-73
2023/08/18 05:45:46;;;;;;;;;;;24.40;99.90;;;;;;2054977;28;19922;-73
2023/08/18 05:46:46;;;;;;;;;;;24.50;99.90;;;;;;2050049;28;19981;-72
2023/08/18 05:47:47;;;;;;;;;;;24.60;99.90;;;;;;2059768;28;19925;-72
2023/08/18 05:48:47;;;;;;;;;;;24.70;99.90;;;;;;2051078;28;19914;-74
2023/08/18 05:49:48;;;;;;;;;;;24.80;99.90;;;;;;2060428;28;19952;-74
2023/08/18 05:50:48;;;;;;;;;;;24.70;99.90;;;;;;2058372;28;20289;-73
2023/08/18 05:51:49;;;;;;;;;;;24.60;99.90;;;;;;2058483;28;19918;-73
2023/08/18 05:52:49;;;;;;;;;;;24.50;99.90;;;;;;2058600;28;19949;-73
2023/08/18 05:53:50;;;;;;;;;;;24.40;99.90;;;;;;2060486;28;20163;-73
2023/08/18 05:54:50;;;;;;;;;;;24.30;99.90;;;;;;2058473;28;19917;-75
2023/08/18 05:55:52;;;;;;;;;;;24.10;99.90;;;;;;2058505;28;20704;-70